sensor_id;sensor_type;location;lat;lon;timestamp;P1;durP1;ratioP1;P2;durP2;ratioP2
7665;SDS011;3875;46.562;4.898;2022-08-16T00:02:05;5.00;;;4.50;;
7665;SDS011;3875;46.562;4.898;2022-08-16T00:04:31;4.70;;;4.03;;
7665;SDS011;3875;46.562;4.898;2022-08-16T00:06:57;5.80;;;4.40;;
7665;SDS011;3875;46.562;4.898;2022-08-16T00:09:23;5.97;;;4.67;;
7665;SDS011;3875;46.562;4.898;2022-08-16T00:11:49;4.90;;;4.30;;
7665;SDS011;3875;46.562;4.898;2022-08-16T00:14:18;5.50;;;4.97;;
7665;SDS011;3875;46.562;4.898;2022-08-16T00:16:48;9.93;;;4.63;;
7665;SDS011;3875;46.562;4.898;2022-08-16T00:19:18;5.47;;;4.63;;
7665;SDS011;3875;46.562;4.898;2022-08-16T00:21:46;5.83;;;4.97;;
7665;SDS011;3875;46.562;4.898;2022-08-16T00:24:12;7.50;;;5.17;;
7665;SDS011;3875;46.562;4.898;2022-08-16T00:26:40;5.17;;;4.77;;
7665;SDS011;3875;46.562;4.898;2022-08-16T00:29:06;5.80;;;5.20;;
7665;SDS011;3875;46.562;4.898;2022-08-16T00:31:32;4.90;;;4.50;;
7665;SDS011;3875;46.562;4.898;2022-08-16T00:33:59;6.33;;;5.20;;
7665;SDS011;3875;46.562;4.898;2022-08-16T00:36:25;7.63;;;4.90;;
7665;SDS011;3875;46.562;4.898;2022-08-16T00:38:51;5.47;;;4.93;;
7665;SDS011;3875;46.562;4.898;2022-08-16T00:41:17;9.33;;;5.30;;
7665;SDS011;3875;46.562;4.898;2022-08-16T00:43:42;6.57;;;5.10;;
7665;SDS011;3875;46.562;4.898;2022-08-16T00:46:10;5.97;;;5.10;;
7665;SDS011;3875;46.562;4.898;2022-08-16T00:48:56;6.47;;;5.80;;
7665;SDS011;3875;46.562;4.898;2022-08-16T00:51:22;6.83;;;5.37;;
7665;SDS011;3875;46.562;4.898;2022-08-16T00:53:51;8.77;;;5.73;;
7665;SDS011;3875;46.562;4.898;2022-08-16T00:56:20;9.10;;;5.90;;
7665;SDS011;3875;46.562;4.898;2022-08-16T00:58:48;6.73;;;6.03;;
7665;SDS011;3875;46.562;4.898;2022-08-16T01:01:15;6.27;;;5.70;;
7665;SDS011;3875;46.562;4.898;2022-08-16T01:03:43;6.93;;;6.10;;
7665;SDS011;3875;46.562;4.898;2022-08-16T01:06:12;7.00;;;6.30;;
7665;SDS011;3875;46.562;4.898;2022-08-16T01:08:41;8.40;;;5.83;;
7665;SDS011;3875;46.562;4.898;2022-08-16T01:11:09;9.47;;;6.00;;
7665;SDS011;3875;46.562;4.898;2022-08-16T01:13:36;7.03;;;5.80;;
7665;SDS011;3875;46.562;4.898;2022-08-16T01:18:38;7.20;;;5.97;;
7665;SDS011;3875;46.562;4.898;2022-08-16T01:23:54;6.87;;;6.07;;
7665;SDS011;3875;46.562;4.898;2022-08-16T01:26:23;7.57;;;6.20;;
7665;SDS011;3875;46.562;4.898;2022-08-16T01:28:51;10.27;;;6.90;;
7665;SDS011;3875;46.562;4.898;2022-08-16T01:31:18;5.60;;;4.73;;
7665;SDS011;3875;46.562;4.898;2022-08-16T01:33:46;5.97;;;4.90;;
7665;SDS011;3875;46.562;4.898;2022-08-16T01:36:13;7.10;;;5.20;;
7665;SDS011;3875;46.562;4.898;2022-08-16T01:38:43;7.27;;;5.67;;
7665;SDS011;3875;46.562;4.898;2022-08-16T01:41:12;5.50;;;5.00;;
7665;SDS011;3875;46.562;4.898;2022-08-16T01:43:43;5.27;;;4.60;;
7665;SDS011;3875;46.562;4.898;2022-08-16T01:46:23;5.70;;;5.00;;
7665;SDS011;3875;46.562;4.898;2022-08-16T01:48:57;6.33;;;5.07;;
7665;SDS011;3875;46.562;4.898;2022-08-16T01:51:29;4.93;;;4.43;;
7665;SDS011;3875;46.562;4.898;2022-08-16T01:53:55;6.90;;;4.90;;
7665;SDS011;3875;46.562;4.898;2022-08-16T01:56:21;5.43;;;4.93;;
7665;SDS011;3875;46.562;4.898;2022-08-16T01:58:47;6.70;;;5.10;;
7665;SDS011;3875;46.562;4.898;2022-08-16T02:01:13;7.33;;;4.87;;
7665;SDS011;3875;46.562;4.898;2022-08-16T02:03:39;5.77;;;5.20;;
7665;SDS011;3875;46.562;4.898;2022-08-16T02:06:05;7.00;;;5.67;;
7665;SDS011;3875;46.562;4.898;2022-08-16T02:08:32;6.80;;;5.60;;
7665;SDS011;3875;46.562;4.898;2022-08-16T02:10:58;7.10;;;5.63;;
7665;SDS011;3875;46.562;4.898;2022-08-16T02:13:24;8.63;;;6.40;;
7665;SDS011;3875;46.562;4.898;2022-08-16T02:15:50;8.27;;;7.13;;
7665;SDS011;3875;46.562;4.898;2022-08-16T02:18:17;7.20;;;5.87;;
7665;SDS011;3875;46.562;4.898;2022-08-16T02:20:43;8.73;;;6.67;;
7665;SDS011;3875;46.562;4.898;2022-08-16T02:23:14;10.37;;;7.33;;
7665;SDS011;3875;46.562;4.898;2022-08-16T02:25:40;7.93;;;7.00;;
7665;SDS011;3875;46.562;4.898;2022-08-16T02:28:06;8.47;;;6.60;;
7665;SDS011;3875;46.562;4.898;2022-08-16T02:30:31;8.83;;;6.50;;
7665;SDS011;3875;46.562;4.898;2022-08-16T02:32:58;10.53;;;6.70;;
7665;SDS011;3875;46.562;4.898;2022-08-16T02:35:24;8.97;;;6.50;;
7665;SDS011;3875;46.562;4.898;2022-08-16T02:37:51;6.47;;;5.87;;
7665;SDS011;3875;46.562;4.898;2022-08-16T02:40:18;7.37;;;5.57;;
7665;SDS011;3875;46.562;4.898;2022-08-16T02:42:46;6.20;;;5.47;;
7665;SDS011;3875;46.562;4.898;2022-08-16T02:45:13;6.07;;;5.00;;
7665;SDS011;3875;46.562;4.898;2022-08-16T02:47:39;6.47;;;5.17;;
7665;SDS011;3875;46.562;4.898;2022-08-16T02:50:06;6.23;;;5.37;;
7665;SDS011;3875;46.562;4.898;2022-08-16T02:52:33;7.87;;;5.53;;
7665;SDS011;3875;46.562;4.898;2022-08-16T02:54:59;7.93;;;5.00;;
7665;SDS011;3875;46.562;4.898;2022-08-16T02:57:25;5.70;;;5.20;;
7665;SDS011;3875;46.562;4.898;2022-08-16T02:59:51;7.97;;;5.23;;
7665;SDS011;3875;46.562;4.898;2022-08-16T03:02:17;5.67;;;5.17;;
7665;SDS011;3875;46.562;4.898;2022-08-16T03:04:43;7.50;;;5.33;;
7665;SDS011;3875;46.562;4.898;2022-08-16T03:07:09;5.53;;;5.03;;
7665;SDS011;3875;46.562;4.898;2022-08-16T03:09:35;7.73;;;4.70;;
7665;SDS011;3875;46.562;4.898;2022-08-16T03:12:01;6.03;;;5.43;;
7665;SDS011;3875;46.562;4.898;2022-08-16T03:14:28;5.83;;;5.33;;
7665;SDS011;3875;46.562;4.898;2022-08-16T03:16:54;9.83;;;5.87;;
7665;SDS011;3875;46.562;4.898;2022-08-16T03:19:20;7.60;;;6.20;;
7665;SDS011;3875;46.562;4.898;2022-08-16T03:21:46;6.53;;;5.53;;
7665;SDS011;3875;46.562;4.898;2022-08-16T03:24:11;5.90;;;5.30;;
7665;SDS011;3875;46.562;4.898;2022-08-16T03:26:37;6.67;;;6.07;;
7665;SDS011;3875;46.562;4.898;2022-08-16T03:29:03;7.37;;;6.57;;
7665;SDS011;3875;46.562;4.898;2022-08-16T03:31:29;7.50;;;5.77;;
7665;SDS011;3875;46.562;4.898;2022-08-16T03:33:55;6.20;;;5.60;;
7665;SDS011;3875;46.562;4.898;2022-08-16T03:36:20;7.03;;;6.33;;
7665;SDS011;3875;46.562;4.898;2022-08-16T03:38:46;6.63;;;5.93;;
7665;SDS011;3875;46.562;4.898;2022-08-16T03:41:12;10.23;;;6.07;;
7665;SDS011;3875;46.562;4.898;2022-08-16T03:43:38;7.30;;;6.30;;
7665;SDS011;3875;46.562;4.898;2022-08-16T03:46:04;6.80;;;5.47;;
7665;SDS011;3875;46.562;4.898;2022-08-16T03:48:31;6.53;;;5.87;;
7665;SDS011;3875;46.562;4.898;2022-08-16T03:50:59;6.67;;;5.43;;
7665;SDS011;3875;46.562;4.898;2022-08-16T03:53:26;6.77;;;6.07;;
7665;SDS011;3875;46.562;4.898;2022-08-16T03:55:53;7.37;;;6.23;;
7665;SDS011;3875;46.562;4.898;2022-08-16T03:58:19;9.30;;;6.13;;
7665;SDS011;3875;46.562;4.898;2022-08-16T04:00:45;6.77;;;5.63;;
7665;SDS011;3875;46.562;4.898;2022-08-16T04:03:12;6.73;;;5.67;;
7665;SDS011;3875;46.562;4.898;2022-08-16T04:05:39;8.23;;;5.80;;
7665;SDS011;3875;46.562;4.898;2022-08-16T04:08:07;8.73;;;5.60;;
7665;SDS011;3875;46.562;4.898;2022-08-16T04:10:33;6.10;;;5.50;;
7665;SDS011;3875;46.562;4.898;2022-08-16T04:12:59;7.50;;;5.40;;
7665;SDS011;3875;46.562;4.898;2022-08-16T04:15:25;5.93;;;5.30;;
7665;SDS011;3875;46.562;4.898;2022-08-16T04:17:53;7.40;;;6.80;;
7665;SDS011;3875;46.562;4.898;2022-08-16T04:20:19;5.73;;;5.03;;
7665;SDS011;3875;46.562;4.898;2022-08-16T04:22:45;6.87;;;5.77;;
7665;SDS011;3875;46.562;4.898;2022-08-16T05:26:38;9.30;;;6.45;;
7665;SDS011;3875;46.562;4.898;2022-08-16T05:29:04;8.15;;;6.43;;
7665;SDS011;3875;46.562;4.898;2022-08-16T05:31:31;8.43;;;6.73;;
7665;SDS011;3875;46.562;4.898;2022-08-16T05:33:58;7.27;;;6.57;;
7665;SDS011;3875;46.562;4.898;2022-08-16T05:36:25;7.43;;;6.72;;
7665;SDS011;3875;46.562;4.898;2022-08-16T05:38:52;7.43;;;6.73;;
7665;SDS011;3875;46.562;4.898;2022-08-16T05:41:17;7.45;;;6.68;;
7665;SDS011;3875;46.562;4.898;2022-08-16T05:43:43;10.88;;;8.38;;
7665;SDS011;3875;46.562;4.898;2022-08-16T05:46:10;12.73;;;8.20;;
7665;SDS011;3875;46.562;4.898;2022-08-16T05:48:37;7.10;;;6.40;;
7665;SDS011;3875;46.562;4.898;2022-08-16T05:51:03;7.43;;;6.73;;
7665;SDS011;3875;46.562;4.898;2022-08-16T05:53:28;8.48;;;7.47;;
7665;SDS011;3875;46.562;4.898;2022-08-16T05:55:54;9.70;;;7.53;;
7665;SDS011;3875;46.562;4.898;2022-08-16T05:58:20;7.10;;;6.43;;
7665;SDS011;3875;46.562;4.898;2022-08-16T06:00:45;7.07;;;6.38;;
7665;SDS011;3875;46.562;4.898;2022-08-16T06:03:11;7.22;;;6.53;;
7665;SDS011;3875;46.562;4.898;2022-08-16T06:05:37;9.33;;;7.20;;
7665;SDS011;3875;46.562;4.898;2022-08-16T06:08:02;6.47;;;5.83;;
7665;SDS011;3875;46.562;4.898;2022-08-16T06:10:28;6.95;;;6.13;;
7665;SDS011;3875;46.562;4.898;2022-08-16T06:12:55;8.20;;;5.53;;
7665;SDS011;3875;46.562;4.898;2022-08-16T06:15:20;7.13;;;6.38;;
7665;SDS011;3875;46.562;4.898;2022-08-16T06:17:46;7.50;;;6.80;;
7665;SDS011;3875;46.562;4.898;2022-08-16T06:20:14;8.75;;;7.50;;
7665;SDS011;3875;46.562;4.898;2022-08-16T06:22:45;7.07;;;6.37;;
7665;SDS011;3875;46.562;4.898;2022-08-16T06:25:12;6.63;;;5.93;;
7665;SDS011;3875;46.562;4.898;2022-08-16T06:27:38;6.43;;;5.40;;
7665;SDS011;3875;46.562;4.898;2022-08-16T06:30:07;5.97;;;5.43;;
7665;SDS011;3875;46.562;4.898;2022-08-16T06:32:35;7.05;;;6.20;;
7665;SDS011;3875;46.562;4.898;2022-08-16T06:35:01;7.53;;;6.78;;
7665;SDS011;3875;46.562;4.898;2022-08-16T06:37:27;10.07;;;5.80;;
7665;SDS011;3875;46.562;4.898;2022-08-16T06:39:53;9.20;;;6.00;;
7665;SDS011;3875;46.562;4.898;2022-08-16T06:42:19;7.97;;;7.17;;
7665;SDS011;3875;46.562;4.898;2022-08-16T06:44:44;6.17;;;5.57;;
7665;SDS011;3875;46.562;4.898;2022-08-16T06:47:10;9.63;;;7.27;;
7665;SDS011;3875;46.562;4.898;2022-08-16T06:49:37;10.13;;;7.47;;
7665;SDS011;3875;46.562;4.898;2022-08-16T06:52:03;8.83;;;7.03;;
7665;SDS011;3875;46.562;4.898;2022-08-16T06:54:29;7.77;;;6.97;;
7665;SDS011;3875;46.562;4.898;2022-08-16T06:56:55;8.37;;;7.37;;
7665;SDS011;3875;46.562;4.898;2022-08-16T06:59:20;8.10;;;6.83;;
7665;SDS011;3875;46.562;4.898;2022-08-16T07:01:46;7.17;;;6.57;;
7665;SDS011;3875;46.562;4.898;2022-08-16T07:04:12;9.23;;;7.63;;
7665;SDS011;3875;46.562;4.898;2022-08-16T07:06:41;8.47;;;7.67;;
7665;SDS011;3875;46.562;4.898;2022-08-16T07:09:07;8.43;;;6.67;;
7665;SDS011;3875;46.562;4.898;2022-08-16T07:11:34;8.60;;;7.13;;
7665;SDS011;3875;46.562;4.898;2022-08-16T07:14:00;8.33;;;7.30;;
7665;SDS011;3875;46.562;4.898;2022-08-16T07:16:26;10.23;;;7.50;;
7665;SDS011;3875;46.562;4.898;2022-08-16T07:18:51;9.93;;;8.53;;
7665;SDS011;3875;46.562;4.898;2022-08-16T07:21:17;11.33;;;8.80;;
7665;SDS011;3875;46.562;4.898;2022-08-16T07:23:43;8.60;;;7.83;;
7665;SDS011;3875;46.562;4.898;2022-08-16T07:26:11;7.83;;;7.03;;
7665;SDS011;3875;46.562;4.898;2022-08-16T07:28:42;7.70;;;7.00;;
7665;SDS011;3875;46.562;4.898;2022-08-16T07:31:08;8.27;;;7.20;;
7665;SDS011;3875;46.562;4.898;2022-08-16T07:33:34;8.40;;;7.27;;
7665;SDS011;3875;46.562;4.898;2022-08-16T07:36:02;7.97;;;7.17;;
7665;SDS011;3875;46.562;4.898;2022-08-16T07:38:29;13.47;;;7.97;;
7665;SDS011;3875;46.562;4.898;2022-08-16T07:40:54;8.60;;;7.73;;
7665;SDS011;3875;46.562;4.898;2022-08-16T07:43:21;11.07;;;7.53;;
7665;SDS011;3875;46.562;4.898;2022-08-16T07:45:48;10.73;;;7.77;;
7665;SDS011;3875;46.562;4.898;2022-08-16T07:48:14;10.23;;;7.20;;
7665;SDS011;3875;46.562;4.898;2022-08-16T07:50:40;10.40;;;7.27;;
7665;SDS011;3875;46.562;4.898;2022-08-16T07:53:07;8.13;;;7.33;;
7665;SDS011;3875;46.562;4.898;2022-08-16T07:55:33;8.23;;;7.27;;
7665;SDS011;3875;46.562;4.898;2022-08-16T07:58:00;8.30;;;7.40;;
7665;SDS011;3875;46.562;4.898;2022-08-16T08:00:26;11.77;;;7.70;;
7665;SDS011;3875;46.562;4.898;2022-08-16T08:02:52;8.27;;;7.10;;
7665;SDS011;3875;46.562;4.898;2022-08-16T08:05:19;8.57;;;7.17;;
7665;SDS011;3875;46.562;4.898;2022-08-16T08:07:47;6.90;;;6.30;;
7665;SDS011;3875;46.562;4.898;2022-08-16T08:10:13;8.17;;;6.37;;
7665;SDS011;3875;46.562;4.898;2022-08-16T08:12:39;9.97;;;6.37;;
7665;SDS011;3875;46.562;4.898;2022-08-16T08:15:07;7.70;;;6.90;;
7665;SDS011;3875;46.562;4.898;2022-08-16T08:17:35;8.03;;;6.70;;
7665;SDS011;3875;46.562;4.898;2022-08-16T08:20:04;7.90;;;6.70;;
7665;SDS011;3875;46.562;4.898;2022-08-16T08:22:31;8.97;;;6.50;;
7665;SDS011;3875;46.562;4.898;2022-08-16T08:24:57;10.13;;;6.70;;
7665;SDS011;3875;46.562;4.898;2022-08-16T08:27:23;6.97;;;6.33;;
7665;SDS011;3875;46.562;4.898;2022-08-16T08:29:48;9.27;;;7.73;;
7665;SDS011;3875;46.562;4.898;2022-08-16T08:32:14;8.27;;;7.47;;
7665;SDS011;3875;46.562;4.898;2022-08-16T08:34:40;12.43;;;7.93;;
7665;SDS011;3875;46.562;4.898;2022-08-16T08:37:06;8.40;;;7.40;;
7665;SDS011;3875;46.562;4.898;2022-08-16T08:39:32;9.00;;;7.30;;
7665;SDS011;3875;46.562;4.898;2022-08-16T08:41:58;8.57;;;7.37;;
7665;SDS011;3875;46.562;4.898;2022-08-16T08:44:25;9.07;;;7.47;;
7665;SDS011;3875;46.562;4.898;2022-08-16T08:46:52;8.67;;;7.57;;
7665;SDS011;3875;46.562;4.898;2022-08-16T08:49:21;9.73;;;7.60;;
7665;SDS011;3875;46.562;4.898;2022-08-16T08:51:47;7.70;;;7.00;;
7665;SDS011;3875;46.562;4.898;2022-08-16T08:54:13;8.70;;;6.87;;
7665;SDS011;3875;46.562;4.898;2022-08-16T08:56:39;8.43;;;7.57;;
7665;SDS011;3875;46.562;4.898;2022-08-16T08:59:05;7.63;;;6.93;;
7665;SDS011;3875;46.562;4.898;2022-08-16T09:01:33;8.43;;;6.40;;
7665;SDS011;3875;46.562;4.898;2022-08-16T09:04:00;7.67;;;6.83;;
7665;SDS011;3875;46.562;4.898;2022-08-16T09:06:28;7.90;;;5.87;;
7665;SDS011;3875;46.562;4.898;2022-08-16T09:08:56;7.50;;;6.80;;
7665;SDS011;3875;46.562;4.898;2022-08-16T09:11:23;6.87;;;6.03;;
7665;SDS011;3875;46.562;4.898;2022-08-16T09:13:49;6.53;;;5.03;;
7665;SDS011;3875;46.562;4.898;2022-08-16T09:16:16;5.93;;;5.33;;
7665;SDS011;3875;46.562;4.898;2022-08-16T09:18:42;7.53;;;5.47;;
7665;SDS011;3875;46.562;4.898;2022-08-16T09:21:08;10.07;;;5.00;;
7665;SDS011;3875;46.562;4.898;2022-08-16T09:23:36;5.60;;;5.10;;
7665;SDS011;3875;46.562;4.898;2022-08-16T09:26:03;8.53;;;5.43;;
7665;SDS011;3875;46.562;4.898;2022-08-16T09:28:32;5.50;;;4.97;;
7665;SDS011;3875;46.562;4.898;2022-08-16T09:30:59;7.37;;;5.43;;
7665;SDS011;3875;46.562;4.898;2022-08-16T09:33:25;5.50;;;5.00;;
7665;SDS011;3875;46.562;4.898;2022-08-16T09:35:51;7.63;;;5.37;;
7665;SDS011;3875;46.562;4.898;2022-08-16T09:38:17;11.77;;;5.47;;
7665;SDS011;3875;46.562;4.898;2022-08-16T09:40:43;5.00;;;4.50;;
7665;SDS011;3875;46.562;4.898;2022-08-16T09:43:12;5.30;;;4.17;;
7665;SDS011;3875;46.562;4.898;2022-08-16T09:45:40;7.07;;;4.60;;
7665;SDS011;3875;46.562;4.898;2022-08-16T09:48:08;6.40;;;5.00;;
7665;SDS011;3875;46.562;4.898;2022-08-16T09:50:35;6.33;;;4.80;;
7665;SDS011;3875;46.562;4.898;2022-08-16T09:53:05;6.43;;;4.93;;
7665;SDS011;3875;46.562;4.898;2022-08-16T09:55:34;5.97;;;3.80;;
7665;SDS011;3875;46.562;4.898;2022-08-16T09:58:00;4.50;;;4.10;;
7665;SDS011;3875;46.562;4.898;2022-08-16T10:00:26;6.60;;;4.13;;
7665;SDS011;3875;46.562;4.898;2022-08-16T10:02:52;4.53;;;4.13;;
7665;SDS011;3875;46.562;4.898;2022-08-16T10:05:18;5.73;;;3.90;;
7665;SDS011;3875;46.562;4.898;2022-08-16T10:07:45;4.50;;;3.63;;
7665;SDS011;3875;46.562;4.898;2022-08-16T10:10:16;4.20;;;3.70;;
7665;SDS011;3875;46.562;4.898;2022-08-16T10:12:44;4.65;;;3.78;;
7665;SDS011;3875;46.562;4.898;2022-08-16T10:15:29;5.28;;;4.00;;
7665;SDS011;3875;46.562;4.898;2022-08-16T10:17:55;6.68;;;4.85;;
7665;SDS011;3875;46.562;4.898;2022-08-16T10:20:22;6.07;;;4.03;;
7665;SDS011;3875;46.562;4.898;2022-08-16T10:22:50;6.55;;;3.92;;
7665;SDS011;3875;46.562;4.898;2022-08-16T10:25:16;6.70;;;3.63;;
7665;SDS011;3875;46.562;4.898;2022-08-16T10:27:43;8.70;;;3.67;;
7665;SDS011;3875;46.562;4.898;2022-08-16T10:30:11;4.22;;;3.75;;
7665;SDS011;3875;46.562;4.898;2022-08-16T10:32:37;4.25;;;3.70;;
7665;SDS011;3875;46.562;4.898;2022-08-16T10:35:03;5.93;;;3.72;;
7665;SDS011;3875;46.562;4.898;2022-08-16T10:37:29;3.90;;;3.60;;
7665;SDS011;3875;46.562;4.898;2022-08-16T10:39:55;5.93;;;3.65;;
7665;SDS011;3875;46.562;4.898;2022-08-16T10:42:21;7.13;;;3.80;;
7665;SDS011;3875;46.562;4.898;2022-08-16T10:44:47;5.47;;;3.80;;
7665;SDS011;3875;46.562;4.898;2022-08-16T10:47:13;4.93;;;3.33;;
7665;SDS011;3875;46.562;4.898;2022-08-16T10:49:39;4.15;;;3.75;;
7665;SDS011;3875;46.562;4.898;2022-08-16T10:52:05;4.00;;;3.58;;
7665;SDS011;3875;46.562;4.898;2022-08-16T10:54:31;6.13;;;3.70;;
7665;SDS011;3875;46.562;4.898;2022-08-16T10:56:57;3.60;;;3.30;;
7665;SDS011;3875;46.562;4.898;2022-08-16T10:59:25;4.28;;;3.85;;
7665;SDS011;3875;46.562;4.898;2022-08-16T11:01:53;11.82;;;3.33;;
7665;SDS011;3875;46.562;4.898;2022-08-16T11:04:19;4.38;;;3.58;;
7665;SDS011;3875;46.562;4.898;2022-08-16T11:06:45;3.92;;;3.28;;
7665;SDS011;3875;46.562;4.898;2022-08-16T11:09:10;5.07;;;3.35;;
7665;SDS011;3875;46.562;4.898;2022-08-16T11:11:36;5.03;;;3.53;;
7665;SDS011;3875;46.562;4.898;2022-08-16T11:14:02;4.57;;;3.40;;
7665;SDS011;3875;46.562;4.898;2022-08-16T11:16:27;4.70;;;3.60;;
7665;SDS011;3875;46.562;4.898;2022-08-16T11:18:54;10.48;;;4.10;;
7665;SDS011;3875;46.562;4.898;2022-08-16T11:21:22;5.00;;;3.78;;
7665;SDS011;3875;46.562;4.898;2022-08-16T11:23:49;5.28;;;3.70;;
7665;SDS011;3875;46.562;4.898;2022-08-16T11:26:17;3.78;;;3.45;;
7665;SDS011;3875;46.562;4.898;2022-08-16T11:28:44;3.53;;;3.17;;
7665;SDS011;3875;46.562;4.898;2022-08-16T11:31:10;6.70;;;3.65;;
7665;SDS011;3875;46.562;4.898;2022-08-16T11:33:36;4.10;;;3.33;;
7665;SDS011;3875;46.562;4.898;2022-08-16T11:36:02;8.40;;;3.72;;
7665;SDS011;3875;46.562;4.898;2022-08-16T11:38:28;3.85;;;3.53;;
7665;SDS011;3875;46.562;4.898;2022-08-16T11:40:55;4.00;;;3.60;;
7665;SDS011;3875;46.562;4.898;2022-08-16T11:43:26;3.70;;;3.40;;
7665;SDS011;3875;46.562;4.898;2022-08-16T11:45:54;6.97;;;3.58;;
7665;SDS011;3875;46.562;4.898;2022-08-16T11:48:22;5.00;;;3.50;;
7665;SDS011;3875;46.562;4.898;2022-08-16T11:50:49;5.38;;;3.50;;
7665;SDS011;3875;46.562;4.898;2022-08-16T11:53:15;4.20;;;3.72;;
7665;SDS011;3875;46.562;4.898;2022-08-16T11:55:42;4.05;;;3.60;;
7665;SDS011;3875;46.562;4.898;2022-08-16T11:58:08;4.22;;;3.20;;
7665;SDS011;3875;46.562;4.898;2022-08-16T12:00:34;4.32;;;3.42;;
7665;SDS011;3875;46.562;4.898;2022-08-16T12:03:01;3.97;;;3.40;;
7665;SDS011;3875;46.562;4.898;2022-08-16T12:05:27;3.80;;;3.42;;
7665;SDS011;3875;46.562;4.898;2022-08-16T12:07:54;3.88;;;3.50;;
7665;SDS011;3875;46.562;4.898;2022-08-16T12:10:21;4.60;;;3.78;;
7665;SDS011;3875;46.562;4.898;2022-08-16T12:12:48;4.18;;;3.35;;
7665;SDS011;3875;46.562;4.898;2022-08-16T12:15:15;4.00;;;3.58;;
7665;SDS011;3875;46.562;4.898;2022-08-16T12:17:42;3.35;;;3.05;;
7665;SDS011;3875;46.562;4.898;2022-08-16T12:20:18;3.97;;;3.20;;
7665;SDS011;3875;46.562;4.898;2022-08-16T12:22:48;7.53;;;3.55;;
7665;SDS011;3875;46.562;4.898;2022-08-16T12:25:16;4.13;;;3.70;;
7665;SDS011;3875;46.562;4.898;2022-08-16T12:27:43;3.83;;;3.40;;
7665;SDS011;3875;46.562;4.898;2022-08-16T12:30:11;5.82;;;3.60;;
7665;SDS011;3875;46.562;4.898;2022-08-16T12:32:39;3.85;;;3.55;;
7665;SDS011;3875;46.562;4.898;2022-08-16T12:35:06;5.93;;;3.80;;
7665;SDS011;3875;46.562;4.898;2022-08-16T12:37:34;3.65;;;3.35;;
7665;SDS011;3875;46.562;4.898;2022-08-16T12:39:59;3.70;;;3.30;;
7665;SDS011;3875;46.562;4.898;2022-08-16T12:42:25;3.88;;;3.47;;
7665;SDS011;3875;46.562;4.898;2022-08-16T12:44:53;7.18;;;3.25;;
7665;SDS011;3875;46.562;4.898;2022-08-16T12:47:19;3.97;;;3.65;;
7665;SDS011;3875;46.562;4.898;2022-08-16T12:50:06;3.88;;;3.58;;
7665;SDS011;3875;46.562;4.898;2022-08-16T12:52:32;4.57;;;3.50;;
7665;SDS011;3875;46.562;4.898;2022-08-16T12:54:58;4.15;;;3.75;;
7665;SDS011;3875;46.562;4.898;2022-08-16T12:57:24;7.18;;;3.67;;
7665;SDS011;3875;46.562;4.898;2022-08-16T12:59:50;3.63;;;3.20;;
7665;SDS011;3875;46.562;4.898;2022-08-16T13:02:17;4.82;;;3.78;;
7665;SDS011;3875;46.562;4.898;2022-08-16T13:04:43;3.92;;;3.60;;
7665;SDS011;3875;46.562;4.898;2022-08-16T13:07:10;5.50;;;3.88;;
7665;SDS011;3875;46.562;4.898;2022-08-16T13:09:37;3.15;;;2.90;;
7665;SDS011;3875;46.562;4.898;2022-08-16T13:12:15;6.68;;;3.42;;
7665;SDS011;3875;46.562;4.898;2022-08-16T13:14:47;6.88;;;3.75;;
7665;SDS011;3875;46.562;4.898;2022-08-16T13:17:16;3.70;;;3.40;;
7665;SDS011;3875;46.562;4.898;2022-08-16T13:19:45;3.60;;;3.30;;
7665;SDS011;3875;46.562;4.898;2022-08-16T13:22:13;5.07;;;3.80;;
7665;SDS011;3875;46.562;4.898;2022-08-16T13:24:39;4.53;;;3.70;;
7665;SDS011;3875;46.562;4.898;2022-08-16T13:27:04;3.80;;;3.50;;
7665;SDS011;3875;46.562;4.898;2022-08-16T13:29:30;8.48;;;3.80;;
7665;SDS011;3875;46.562;4.898;2022-08-16T13:31:56;5.00;;;3.65;;
7665;SDS011;3875;46.562;4.898;2022-08-16T13:34:21;4.30;;;3.40;;
7665;SDS011;3875;46.562;4.898;2022-08-16T13:36:48;4.57;;;4.18;;
7665;SDS011;3875;46.562;4.898;2022-08-16T13:39:14;4.40;;;3.67;;
7665;SDS011;3875;46.562;4.898;2022-08-16T13:41:41;3.83;;;3.47;;
7665;SDS011;3875;46.562;4.898;2022-08-16T13:44:07;5.07;;;3.65;;
7665;SDS011;3875;46.562;4.898;2022-08-16T13:46:33;3.53;;;3.22;;
7665;SDS011;3875;46.562;4.898;2022-08-16T13:48:59;6.10;;;3.70;;
7665;SDS011;3875;46.562;4.898;2022-08-16T13:51:25;3.90;;;3.58;;
7665;SDS011;3875;46.562;4.898;2022-08-16T13:53:53;4.55;;;3.38;;
7665;SDS011;3875;46.562;4.898;2022-08-16T13:56:21;4.28;;;3.63;;
7665;SDS011;3875;46.562;4.898;2022-08-16T13:58:48;4.20;;;3.65;;
7665;SDS011;3875;46.562;4.898;2022-08-16T14:01:15;7.65;;;3.65;;
7665;SDS011;3875;46.562;4.898;2022-08-16T14:03:42;3.95;;;3.65;;
7665;SDS011;3875;46.562;4.898;2022-08-16T14:06:09;4.18;;;3.80;;
7665;SDS011;3875;46.562;4.898;2022-08-16T14:08:36;4.22;;;3.83;;
7665;SDS011;3875;46.562;4.898;2022-08-16T14:11:06;6.65;;;3.70;;
7665;SDS011;3875;46.562;4.898;2022-08-16T14:13:34;5.28;;;3.60;;
7665;SDS011;3875;46.562;4.898;2022-08-16T14:16:00;4.28;;;3.88;;
7665;SDS011;3875;46.562;4.898;2022-08-16T14:18:26;6.70;;;3.88;;
7665;SDS011;3875;46.562;4.898;2022-08-16T14:20:52;3.67;;;3.42;;
7665;SDS011;3875;46.562;4.898;2022-08-16T14:23:18;6.28;;;3.75;;
7665;SDS011;3875;46.562;4.898;2022-08-16T14:25:43;3.55;;;3.25;;
7665;SDS011;3875;46.562;4.898;2022-08-16T14:28:09;3.63;;;3.33;;
7665;SDS011;3875;46.562;4.898;2022-08-16T14:30:35;4.32;;;3.60;;
7665;SDS011;3875;46.562;4.898;2022-08-16T14:33:02;5.97;;;3.40;;
7665;SDS011;3875;46.562;4.898;2022-08-16T14:35:29;4.88;;;4.28;;
7665;SDS011;3875;46.562;4.898;2022-08-16T14:37:57;3.75;;;3.45;;
7665;SDS011;3875;46.562;4.898;2022-08-16T14:40:23;5.95;;;3.75;;
7665;SDS011;3875;46.562;4.898;2022-08-16T14:42:49;3.95;;;3.47;;
7665;SDS011;3875;46.562;4.898;2022-08-16T14:45:16;4.15;;;3.83;;
7665;SDS011;3875;46.562;4.898;2022-08-16T14:47:44;3.92;;;3.58;;
7665;SDS011;3875;46.562;4.898;2022-08-16T14:50:11;3.75;;;3.45;;
7665;SDS011;3875;46.562;4.898;2022-08-16T14:52:40;5.60;;;3.58;;
7665;SDS011;3875;46.562;4.898;2022-08-16T14:55:09;5.30;;;3.47;;
7665;SDS011;3875;46.562;4.898;2022-08-16T14:57:35;3.63;;;3.33;;
7665;SDS011;3875;46.562;4.898;2022-08-16T15:00:03;4.25;;;3.67;;
7665;SDS011;3875;46.562;4.898;2022-08-16T15:02:31;3.67;;;3.38;;
7665;SDS011;3875;46.562;4.898;2022-08-16T15:04:57;3.65;;;3.35;;
7665;SDS011;3875;46.562;4.898;2022-08-16T15:07:23;5.90;;;4.18;;
7665;SDS011;3875;46.562;4.898;2022-08-16T15:09:49;5.45;;;3.97;;
7665;SDS011;3875;46.562;4.898;2022-08-16T15:12:18;3.30;;;3.10;;
7665;SDS011;3875;46.562;4.898;2022-08-16T15:14:47;4.40;;;3.72;;
7665;SDS011;3875;46.562;4.898;2022-08-16T15:17:16;3.92;;;3.63;;
7665;SDS011;3875;46.562;4.898;2022-08-16T15:19:42;4.10;;;3.70;;
7665;SDS011;3875;46.562;4.898;2022-08-16T15:22:15;5.20;;;3.17;;
7665;SDS011;3875;46.562;4.898;2022-08-16T15:25:07;5.30;;;3.20;;
7665;SDS011;3875;46.562;4.898;2022-08-16T15:27:37;5.22;;;3.50;;
7665;SDS011;3875;46.562;4.898;2022-08-16T15:30:06;4.07;;;3.65;;
7665;SDS011;3875;46.562;4.898;2022-08-16T15:32:50;3.85;;;3.55;;
7665;SDS011;3875;46.562;4.898;2022-08-16T15:35:21;3.83;;;3.30;;
7665;SDS011;3875;46.562;4.898;2022-08-16T15:37:47;3.95;;;3.45;;
7665;SDS011;3875;46.562;4.898;2022-08-16T15:40:14;4.18;;;3.78;;
7665;SDS011;3875;46.562;4.898;2022-08-16T15:42:42;6.03;;;3.80;;
7665;SDS011;3875;46.562;4.898;2022-08-16T15:45:13;3.88;;;3.58;;
7665;SDS011;3875;46.562;4.898;2022-08-16T15:47:59;6.45;;;3.20;;
7665;SDS011;3875;46.562;4.898;2022-08-16T15:50:24;3.55;;;3.25;;
7665;SDS011;3875;46.562;4.898;2022-08-16T15:52:50;4.03;;;3.63;;
7665;SDS011;3875;46.562;4.898;2022-08-16T15:55:15;5.88;;;3.45;;
7665;SDS011;3875;46.562;4.898;2022-08-16T15:57:41;3.85;;;3.55;;
7665;SDS011;3875;46.562;4.898;2022-08-16T16:00:07;3.63;;;3.33;;
7665;SDS011;3875;46.562;4.898;2022-08-16T16:02:33;5.20;;;3.53;;
7665;SDS011;3875;46.562;4.898;2022-08-16T16:05:04;3.92;;;3.40;;
7665;SDS011;3875;46.562;4.898;2022-08-16T16:07:31;4.68;;;3.22;;
7665;SDS011;3875;46.562;4.898;2022-08-16T16:09:58;4.13;;;3.17;;
7665;SDS011;3875;46.562;4.898;2022-08-16T16:12:25;5.45;;;3.80;;
7665;SDS011;3875;46.562;4.898;2022-08-16T16:14:51;5.50;;;3.63;;
7665;SDS011;3875;46.562;4.898;2022-08-16T16:17:17;3.72;;;3.38;;
7665;SDS011;3875;46.562;4.898;2022-08-16T16:19:43;3.60;;;3.30;;
7665;SDS011;3875;46.562;4.898;2022-08-16T16:22:08;3.80;;;3.50;;